Time;durP1;ratioP1;P1;durP2;ratioP2;P2;SDS_P1;SDS_P2;PMS_P1;PMS_P2;Temp;Humidity;BMP_temperature;BMP_pressure;BME280_temperature;BME280_humidity;BME280_pressure;Samples;Min_cycle;Max_cycle;Signal;HPM_P1;HPM_P2
2022/02/22 00:01:35;;;;;;;11.55;2.38;;;7.30;99.90;;;;;;5007865;28;20540;-43
2022/02/22 00:04:00;;;;;;;12.20;2.70;;;7.30;99.90;;;;;;5009167;28;20540;-43
2022/02/22 00:06:26;;;;;;;14.60;2.20;;;7.40;99.90;;;;;;5011072;28;20034;-47
2022/02/22 00:08:52;;;;;;;11.95;3.15;;;7.40;99.90;;;;;;5009978;28;20034;-43
2022/02/22 00:11:17;;;;;;;11.00;1.98;;;7.40;99.90;;;;;;5008121;28;20034;-43
2022/02/22 00:13:43;;;;;;;9.20;2.00;;;7.40;99.90;;;;;;5009406;28;20100;-46
2022/02/22 00:16:08;;;;;;;28.00;12.20;;;7.50;99.90;;;;;;5008820;28;20038;-41
2022/02/22 00:18:34;;;;;;;15.82;3.70;;;7.50;99.90;;;;;;5009099;28;20030;-44
2022/02/22 00:21:00;;;;;;;14.07;3.13;;;7.50;99.90;;;;;;5009110;28;20132;-46
2022/02/22 00:23:25;;;;;;;7.85;2.42;;;7.40;99.90;;;;;;5008850;28;20029;-47
2022/02/22 00:25:51;;;;;;;10.23;2.22;;;7.30;99.90;;;;;;5009264;28;20029;-43
2022/02/22 00:28:20;;;;;;;13.70;2.30;;;7.20;99.90;;;;;;5010350;28;20065;-42
2022/02/22 00:30:49;;;;;;;14.63;3.20;;;7.20;99.90;;;;;;5010516;28;20045;-42
2022/02/22 00:33:15;;;;;;;12.27;3.42;;;7.10;99.90;;;;;;5009681;28;20344;-48
2022/02/22 00:35:41;;;;;;;8.73;1.90;;;7.10;99.90;;;;;;5007095;28;20026;-43
2022/02/22 00:38:07;;;;;;;14.02;2.30;;;7.10;99.90;;;;;;5011622;28;20021;-48
2022/02/22 00:40:33;;;;;;;12.85;2.17;;;7.10;99.90;;;;;;5009639;28;20022;-44
2022/02/22 00:42:58;;;;;;;10.00;2.95;;;7.10;99.90;;;;;;5011603;28;20025;-50
2022/02/22 00:45:23;;;;;;;10.18;2.25;;;7.00;99.90;;;;;;5011931;28;20252;-46
2022/02/22 00:47:49;;;;;;;8.23;2.38;;;7.20;99.90;;;;;;5011412;28;20101;-46
2022/02/22 00:50:15;;;;;;;13.07;3.28;;;7.30;99.90;;;;;;5011711;28;20540;-46
2022/02/22 00:52:40;;;;;;;17.40;3.83;;;7.20;99.90;;;;;;5012112;28;20030;-50
2022/02/22 00:55:06;;;;;;;11.45;3.00;;;7.30;99.90;;;;;;5011538;28;20474;-49
2022/02/22 00:57:32;;;;;;;19.45;3.22;;;7.20;99.90;;;;;;5011662;28;20104;-49
2022/02/22 00:59:57;;;;;;;12.98;3.17;;;7.20;99.90;;;;;;5011737;28;20032;-47
2022/02/22 01:02:23;;;;;;;16.67;2.38;;;7.20;99.90;;;;;;5011608;28;20033;-44
2022/02/22 01:04:49;;;;;;;8.68;2.65;;;7.20;99.90;;;;;;5011221;28;20397;-43
2022/02/22 01:07:17;;;;;;;12.13;2.60;;;7.20;99.90;;;;;;5010346;28;20084;-45
2022/02/22 01:09:47;;;;;;;11.32;3.03;;;7.20;99.90;;;;;;5011679;28;20072;-44
2022/02/22 01:12:14;;;;;;;21.50;3.80;;;7.30;99.90;;;;;;5011462;28;20026;-45
2022/02/22 01:14:40;;;;;;;16.65;2.50;;;7.30;99.90;;;;;;5011277;28;20096;-44
2022/02/22 01:17:05;;;;;;;14.75;3.03;;;7.30;99.90;;;;;;5011460;28;20433;-45
2022/02/22 01:19:31;;;;;;;16.00;2.05;;;7.30;99.90;;;;;;5011534;28;20465;-46
2022/02/22 01:21:56;;;;;;;17.73;2.67;;;7.40;99.90;;;;;;4993910;28;20050;-43
2022/02/22 01:24:22;;;;;;;12.00;2.53;;;7.30;99.90;;;;;;5011350;28;20022;-44
2022/02/22 01:26:47;;;;;;;9.88;2.65;;;7.30;99.90;;;;;;5011415;28;20037;-45
2022/02/22 01:29:13;;;;;;;15.70;2.55;;;7.20;99.90;;;;;;5011508;28;20021;-46
2022/02/22 01:31:39;;;;;;;16.80;2.55;;;7.20;99.90;;;;;;5012592;28;20026;-43
2022/02/22 01:34:04;;;;;;;19.08;3.03;;;7.20;99.90;;;;;;5013034;28;20044;-44
2022/02/22 01:36:30;;;;;;;14.82;2.92;;;7.20;99.90;;;;;;5015705;23;20046;-50
2022/02/22 01:38:55;;;;;;;16.85;2.67;;;7.20;99.90;;;;;;4994788;28;20565;-45
2022/02/22 01:41:23;;;;;;;10.60;2.55;;;7.20;99.90;;;;;;4995692;28;20030;-46
2022/02/22 01:43:49;;;;;;;12.30;2.80;;;7.20;99.90;;;;;;4995270;28;20018;-49
2022/02/22 01:46:15;;;;;;;11.80;3.22;;;7.10;99.90;;;;;;5010001;28;20041;-50
2022/02/22 01:48:41;;;;;;;15.85;2.15;;;7.20;99.90;;;;;;5010402;28;20026;-49
2022/02/22 01:51:06;;;;;;;8.25;2.70;;;7.20;99.90;;;;;;4994027;28;20428;-50
2022/02/22 01:53:33;;;;;;;16.48;3.58;;;7.20;99.90;;;;;;4995200;28;20036;-44
2022/02/22 01:55:59;;;;;;;12.85;3.25;;;7.20;99.90;;;;;;4995225;28;20057;-50
2022/02/22 01:58:30;;;;;;;12.55;2.35;;;7.10;99.90;;;;;;4995349;28;20054;-48
2022/02/22 02:00:56;;;;;;;13.32;2.85;;;7.20;99.90;;;;;;4996351;28;20359;-42
2022/02/22 02:03:22;;;;;;;13.93;2.25;;;7.20;99.90;;;;;;4995041;28;20078;-46
2022/02/22 02:05:47;;;;;;;16.85;3.90;;;7.10;99.90;;;;;;4995172;28;20026;-46
2022/02/22 02:08:13;;;;;;;6.60;2.30;;;7.10;99.90;;;;;;4995251;28;20026;-45
2022/02/22 02:10:39;;;;;;;13.95;3.53;;;7.10;99.90;;;;;;4995033;28;20030;-42
2022/02/22 02:13:04;;;;;;;13.35;2.80;;;7.10;99.90;;;;;;4994707;28;20054;-46
2022/02/22 02:15:30;;;;;;;13.02;2.40;;;7.10;99.90;;;;;;4995078;28;20030;-46
2022/02/22 02:17:56;;;;;;;14.70;3.90;;;7.10;99.90;;;;;;4995397;28;20072;-47
2022/02/22 02:23:43;;;;;;;18.48;4.03;;;7.20;99.90;;;;;;4993551;28;20038;-46
2022/02/22 02:26:09;;;;;;;16.15;3.17;;;7.20;99.90;;;;;;4994941;28;20030;-46
2022/02/22 02:28:34;;;;;;;17.90;3.10;;;7.10;99.90;;;;;;4994818;28;20030;-50
2022/02/22 02:31:00;;;;;;;20.83;3.33;;;7.10;99.90;;;;;;4994722;28;20422;-45
2022/02/22 02:33:25;;;;;;;12.57;2.60;;;7.10;99.90;;;;;;4994516;28;20031;-48
2022/02/22 02:35:51;;;;;;;12.05;2.42;;;7.10;99.90;;;;;;4994703;28;20034;-44
2022/02/22 02:38:16;;;;;;;14.52;2.58;;;7.00;99.90;;;;;;4993903;28;20026;-49
2022/02/22 02:40:42;;;;;;;19.95;2.63;;;6.90;99.90;;;;;;4994840;28;20112;-46
2022/02/22 02:43:07;;;;;;;18.25;3.25;;;7.00;99.90;;;;;;4994533;28;20022;-50
2022/02/22 02:45:33;;;;;;;22.83;3.63;;;6.90;99.90;;;;;;4994711;28;20110;-47
2022/02/22 02:47:58;;;;;;;9.75;3.03;;;6.90;99.90;;;;;;4995773;28;20027;-42
2022/02/22 02:50:24;;;;;;;12.18;2.55;;;6.90;99.90;;;;;;4995848;28;20034;-41
2022/02/22 02:52:49;;;;;;;17.70;2.63;;;6.80;99.90;;;;;;4993080;28;20026;-47
2022/02/22 02:55:15;;;;;;;21.88;3.30;;;6.80;99.90;;;;;;4994348;28;20428;-46
2022/02/22 02:57:40;;;;;;;22.73;4.25;;;6.80;99.90;;;;;;4994300;28;20050;-44
2022/02/22 03:00:08;;;;;;;18.67;3.72;;;6.80;99.90;;;;;;4994316;28;20033;-50
2022/02/22 03:02:33;;;;;;;12.13;4.22;;;6.70;99.90;;;;;;4994286;28;20106;-47
2022/02/22 03:04:59;;;;;;;17.27;3.30;;;6.60;99.90;;;;;;4994110;28;20474;-46
2022/02/22 03:07:28;;;;;;;17.25;3.28;;;6.50;99.90;;;;;;4992874;28;20509;-47
2022/02/22 03:09:53;;;;;;;20.88;3.80;;;6.50;99.90;;;;;;4993889;28;20033;-41
2022/02/22 03:12:19;;;;;;;15.63;2.92;;;6.50;99.90;;;;;;4993938;28;20066;-46
2022/02/22 03:14:48;;;;;;;12.48;3.10;;;6.50;99.90;;;;;;4993535;28;20065;-45
2022/02/22 03:17:13;;;;;;;17.48;3.88;;;6.60;99.90;;;;;;4993892;28;20022;-45
2022/02/22 03:19:39;;;;;;;16.90;3.42;;;6.60;99.90;;;;;;4994241;28;20074;-48
2022/02/22 03:22:05;;;;;;;24.23;5.80;;;6.60;99.90;;;;;;4993960;28;20064;-46
2022/02/22 03:24:30;;;;;;;20.15;4.05;;;6.60;99.90;;;;;;4994260;28;20052;-46
2022/02/22 03:26:55;;;;;;;12.43;3.03;;;6.60;99.90;;;;;;4994512;28;20038;-46
2022/02/22 03:29:21;;;;;;;13.95;3.65;;;6.60;99.90;;;;;;4994699;28;20434;-46
2022/02/22 03:31:46;;;;;;;12.00;2.88;;;6.50;99.90;;;;;;4994478;28;20113;-41
2022/02/22 03:34:12;;;;;;;22.52;3.03;;;6.60;99.90;;;;;;4993543;28;20487;-46
2022/02/22 03:36:38;;;;;;;14.15;3.25;;;6.50;99.90;;;;;;4994248;28;20030;-44
2022/02/22 03:39:03;;;;;;;17.20;3.88;;;6.60;99.90;;;;;;4994316;28;20124;-45
2022/02/22 03:41:29;;;;;;;15.18;2.92;;;6.60;99.90;;;;;;4994676;28;20023;-45
2022/02/22 03:43:55;;;;;;;20.15;3.15;;;6.60;99.90;;;;;;4993646;28;20041;-46
2022/02/22 03:46:20;;;;;;;14.05;3.83;;;6.60;99.90;;;;;;4992884;28;20035;-48
2022/02/22 03:48:46;;;;;;;13.95;3.28;;;6.70;99.90;;;;;;4993713;28;20056;-48
2022/02/22 03:51:12;;;;;;;17.80;3.03;;;6.60;99.90;;;;;;4993235;28;20100;-49
2022/02/22 03:53:40;;;;;;;14.88;3.25;;;6.60;99.90;;;;;;4993185;28;20030;-48
2022/02/22 03:56:06;;;;;;;22.33;3.20;;;6.70;99.90;;;;;;4993071;28;20054;-48
2022/02/22 03:58:31;;;;;;;20.58;3.55;;;6.70;99.90;;;;;;4993602;28;20050;-47
2022/02/22 04:00:57;;;;;;;16.73;2.92;;;6.70;99.90;;;;;;4991117;28;20135;-47
2022/02/22 04:03:22;;;;;;;20.30;2.80;;;6.70;99.90;;;;;;4992892;28;20054;-45
2022/02/22 04:05:48;;;;;;;13.88;2.70;;;6.70;99.90;;;;;;4993598;28;20030;-43
2022/02/22 04:08:14;;;;;;;20.70;2.85;;;6.70;99.90;;;;;;4993131;28;20030;-50
2022/02/22 04:10:40;;;;;;;8.85;3.03;;;6.70;99.90;;;;;;4993763;28;20034;-46
2022/02/22 04:13:05;;;;;;;21.30;3.13;;;6.70;99.90;;;;;;4992921;28;20121;-46
2022/02/22 04:15:31;;;;;;;19.83;3.30;;;6.80;99.90;;;;;;4991639;28;20053;-42
2022/02/22 04:17:56;;;;;;;18.17;2.88;;;6.80;99.90;;;;;;4993555;28;20022;-47
2022/02/22 04:20:22;;;;;;;22.27;3.80;;;6.80;99.90;;;;;;4992703;28;20497;-50
2022/02/22 04:22:48;;;;;;;12.07;3.78;;;6.70;99.90;;;;;;4992311;28;20025;-46
2022/02/22 04:25:13;;;;;;;20.73;4.15;;;6.60;99.90;;;;;;4992457;28;20030;-44
2022/02/22 04:27:39;;;;;;;12.90;3.65;;;6.50;99.90;;;;;;4992469;28;20077;-48
2022/02/22 04:30:06;;;;;;;11.15;3.03;;;6.60;99.90;;;;;;4992413;28;20026;-47
2022/02/22 04:32:32;;;;;;;17.90;4.20;;;6.60;99.90;;;;;;4992470;28;20093;-48
2022/02/22 04:34:57;;;;;;;15.40;2.92;;;6.70;99.90;;;;;;4992148;28;20030;-47
2022/02/22 04:37:23;;;;;;;20.85;3.03;;;6.70;99.90;;;;;;4991195;28;20036;-43
2022/02/22 04:39:52;;;;;;;19.73;4.70;;;6.80;99.90;;;;;;4992348;28;20026;-49
2022/02/22 04:42:18;;;;;;;22.33;3.22;;;6.70;99.90;;;;;;4992298;28;20394;-47
2022/02/22 04:44:44;;;;;;;13.50;2.63;;;6.80;99.90;;;;;;4992078;28;20025;-50
2022/02/22 04:47:11;;;;;;;16.45;2.67;;;6.70;99.90;;;;;;4991752;28;20030;-46
2022/02/22 04:49:37;;;;;;;25.73;3.70;;;6.70;99.90;;;;;;4992297;28;20037;-42
2022/02/22 04:52:04;;;;;;;21.25;3.33;;;6.70;99.90;;;;;;4992180;28;20038;-50
2022/02/22 04:54:29;;;;;;;19.38;4.15;;;6.60;99.90;;;;;;4991943;28;20026;-45
2022/02/22 04:56:55;;;;;;;12.98;2.40;;;6.60;99.90;;;;;;4992056;28;20026;-45
2022/02/22 04:59:20;;;;;;;14.07;2.88;;;6.60;99.90;;;;;;4992537;28;20026;-42
2022/02/22 05:01:46;;;;;;;18.70;3.47;;;6.60;99.90;;;;;;4992096;28;20025;-51
2022/02/22 05:04:11;;;;;;;18.17;3.05;;;6.60;99.90;;;;;;4991831;28;20066;-46
2022/02/22 05:06:38;;;;;;;12.15;3.17;;;6.50;99.90;;;;;;4992058;28;20478;-47
2022/02/22 05:09:04;;;;;;;11.70;2.92;;;6.40;99.90;;;;;;4992089;28;20046;-47
2022/02/22 05:11:30;;;;;;;11.15;2.40;;;6.40;99.90;;;;;;4992628;28;20038;-43
2022/02/22 05:13:56;;;;;;;16.80;4.78;;;6.30;99.90;;;;;;4995968;28;20030;-48
2022/02/22 05:16:21;;;;;;;18.15;2.92;;;6.30;99.90;;;;;;4995960;28;20425;-47
2022/02/22 05:18:46;;;;;;;18.08;3.30;;;6.30;99.90;;;;;;4995921;28;20038;-45
2022/02/22 05:21:12;;;;;;;14.27;4.05;;;6.20;99.90;;;;;;4995730;28;20504;-46
2022/02/22 05:23:38;;;;;;;13.20;2.67;;;6.20;99.90;;;;;;4995570;28;20034;-43
2022/02/22 05:26:05;;;;;;;16.00;2.97;;;6.20;99.90;;;;;;4995922;28;20030;-52
2022/02/22 05:28:32;;;;;;;11.05;3.00;;;6.10;99.90;;;;;;4995889;28;20030;-46
2022/02/22 05:30:57;;;;;;;25.25;3.03;;;6.20;99.90;;;;;;4995738;28;20034;-45
2022/02/22 05:33:23;;;;;;;17.05;3.40;;;6.20;99.90;;;;;;4995589;28;20417;-47
2022/02/22 05:35:51;;;;;;;17.60;2.92;;;6.20;99.90;;;;;;4995419;28;20038;-46
2022/02/22 05:38:17;;;;;;;18.42;4.45;;;6.20;99.90;;;;;;4995791;28;20112;-47
2022/02/22 05:40:43;;;;;;;11.88;2.85;;;6.20;99.90;;;;;;4995680;28;20037;-46
2022/02/22 05:43:09;;;;;;;19.33;3.95;;;6.30;99.90;;;;;;5010419;28;20026;-51
2022/02/22 05:45:35;;;;;;;17.27;3.42;;;6.20;99.90;;;;;;4995926;28;20026;-43
2022/02/22 05:48:01;;;;;;;9.77;3.80;;;6.20;99.90;;;;;;4995166;28;20490;-46
2022/02/22 05:50:27;;;;;;;16.52;3.25;;;6.10;99.90;;;;;;4995482;28;20042;-47
2022/02/22 05:52:55;;;;;;;18.85;3.65;;;6.10;99.90;;;;;;4995346;28;20034;-42
2022/02/22 05:55:21;;;;;;;10.75;3.25;;;6.10;99.90;;;;;;4995244;28;20117;-43
2022/02/22 05:57:49;;;;;;;13.80;2.58;;;6.10;99.90;;;;;;4995531;28;20101;-48
2022/02/22 06:00:14;;;;;;;17.25;3.75;;;6.00;99.90;;;;;;4995251;28;20054;-48
2022/02/22 06:02:40;;;;;;;19.48;3.88;;;6.00;99.90;;;;;;4995129;28;20060;-43
2022/02/22 06:05:06;;;;;;;11.10;3.38;;;5.90;99.90;;;;;;4995040;28;20450;-46
2022/02/22 06:07:32;;;;;;;13.00;3.10;;;6.00;99.90;;;;;;4995198;28;20066;-45
2022/02/22 06:09:57;;;;;;;19.85;2.75;;;5.90;99.90;;;;;;4995302;28;20030;-45
2022/02/22 06:12:23;;;;;;;18.58;4.57;;;5.90;99.90;;;;;;4995319;28;20025;-46
2022/02/22 06:14:48;;;;;;;11.63;3.40;;;6.00;99.90;;;;;;4995217;28;20037;-46
2022/02/22 06:17:14;;;;;;;22.88;5.00;;;6.00;99.90;;;;;;4994908;28;20402;-51
2022/02/22 06:19:39;;;;;;;13.88;3.10;;;6.00;99.90;;;;;;4995205;28;20391;-42
2022/02/22 06:22:05;;;;;;;17.40;3.45;;;5.90;99.90;;;;;;4994864;28;20065;-46
2022/02/22 06:24:31;;;;;;;16.63;3.88;;;5.90;99.90;;;;;;4994030;28;20033;-47
2022/02/22 06:26:56;;;;;;;16.95;2.88;;;6.00;99.90;;;;;;4993690;28;20062;-49
2022/02/22 06:29:23;;;;;;;20.30;4.15;;;5.90;99.90;;;;;;4994982;28;20153;-42
2022/02/22 06:31:50;;;;;;;16.08;3.20;;;5.90;99.90;;;;;;4995292;28;20023;-45
2022/02/22 06:34:16;;;;;;;20.90;3.67;;;5.90;99.90;;;;;;4994829;28;20030;-49
2022/02/22 06:36:42;;;;;;;15.73;2.80;;;5.80;99.90;;;;;;4997529;28;20053;-46
2022/02/22 06:39:07;;;;;;;19.08;3.60;;;5.80;99.90;;;;;;5008984;28;20033;-49
2022/02/22 06:41:33;;;;;;;17.95;4.50;;;5.80;99.90;;;;;;5002997;28;20469;-45
2022/02/22 06:43:58;;;;;;;14.57;3.40;;;5.80;99.90;;;;;;4994824;28;20022;-46
2022/02/22 06:46:24;;;;;;;12.48;2.35;;;5.70;99.90;;;;;;4994288;28;20042;-47
2022/02/22 06:48:49;;;;;;;9.57;2.97;;;5.60;99.90;;;;;;4994475;28;20057;-43
2022/02/22 06:51:15;;;;;;;18.08;3.30;;;5.60;99.90;;;;;;4994743;28;20109;-45
2022/02/22 06:53:40;;;;;;;13.55;2.53;;;5.60;99.90;;;;;;4994309;28;20145;-46
2022/02/22 06:56:07;;;;;;;16.23;2.63;;;5.60;99.90;;;;;;4994288;28;20026;-45
2022/02/22 06:58:32;;;;;;;20.38;5.15;;;5.60;99.90;;;;;;4994385;28;20386;-45
2022/02/22 07:00:58;;;;;;;19.98;4.05;;;5.60;99.90;;;;;;4994303;28;20033;-46
2022/02/22 07:03:24;;;;;;;11.43;3.03;;;5.70;99.90;;;;;;4994025;28;20045;-47
2022/02/22 07:05:50;;;;;;;17.33;3.63;;;5.80;99.90;;;;;;4994326;28;20490;-44
2022/02/22 07:08:15;;;;;;;9.90;2.80;;;6.00;99.90;;;;;;4994578;28;20026;-46
2022/02/22 07:10:41;;;;;;;19.20;3.20;;;6.00;99.90;;;;;;4994123;28;20034;-43
2022/02/22 07:13:07;;;;;;;14.50;3.40;;;6.10;99.90;;;;;;4993689;28;20037;-50
2022/02/22 07:15:33;;;;;;;23.40;3.17;;;6.10;99.90;;;;;;4994047;28;20033;-50
2022/02/22 07:18:03;;;;;;;19.98;4.07;;;6.20;99.90;;;;;;4994069;28;20022;-49
2022/02/22 07:20:29;;;;;;;18.08;3.35;;;6.20;99.90;;;;;;4993982;28;20028;-52
2022/02/22 07:22:59;;;;;;;13.52;4.10;;;6.30;99.90;;;;;;4993632;28;20022;-46
2022/02/22 07:25:26;;;;;;;17.33;3.85;;;6.30;99.90;;;;;;4993761;28;20030;-44
2022/02/22 07:27:53;;;;;;;21.55;3.65;;;6.40;99.90;;;;;;4993790;28;20045;-48
2022/02/22 07:30:20;;;;;;;19.17;3.88;;;6.60;99.90;;;;;;4993895;28;20030;-48
2022/02/22 07:32:46;;;;;;;17.38;3.63;;;6.70;99.90;;;;;;4993747;28;20316;-51
2022/02/22 07:35:12;;;;;;;12.40;2.60;;;6.60;99.90;;;;;;4992562;28;20417;-48
2022/02/22 07:37:39;;;;;;;14.60;3.72;;;6.70;99.90;;;;;;5029794;23;20054;-43
2022/02/22 07:40:09;;;;;;;11.85;3.17;;;6.80;99.90;;;;;;5013107;28;20018;-44
2022/02/22 07:42:39;;;;;;;20.10;3.67;;;6.90;99.90;;;;;;5012340;28;20029;-47
2022/02/22 07:45:05;;;;;;;20.48;3.75;;;6.90;99.90;;;;;;5012839;28;20022;-48
2022/02/22 07:47:31;;;;;;;19.13;3.95;;;6.90;99.90;;;;;;5012708;28;20421;-46
2022/02/22 07:49:58;;;;;;;17.83;3.30;;;6.90;99.90;;;;;;5012885;28;20145;-48
2022/02/22 07:52:25;;;;;;;15.32;3.72;;;6.90;99.90;;;;;;5012869;28;20022;-47
2022/02/22 07:54:50;;;;;;;14.40;4.88;;;6.90;99.90;;;;;;5012675;28;20024;-47
2022/02/22 07:57:16;;;;;;;13.55;3.85;;;6.90;99.90;;;;;;5012736;28;20034;-46
2022/02/22 07:59:41;;;;;;;16.45;3.30;;;6.90;99.90;;;;;;5012944;28;20433;-46
2022/02/22 08:02:07;;;;;;;18.92;3.63;;;6.90;99.90;;;;;;5012472;28;20055;-48
2022/02/22 08:04:32;;;;;;;11.02;3.42;;;6.80;99.90;;;;;;5012352;28;20083;-47
2022/02/22 08:06:58;;;;;;;14.20;3.72;;;6.90;99.90;;;;;;5012594;28;20073;-44
2022/02/22 08:09:24;;;;;;;17.45;3.72;;;6.90;99.90;;;;;;5011176;28;20426;-46
2022/02/22 08:11:50;;;;;;;16.13;3.50;;;6.90;99.90;;;;;;5012561;28;20026;-45
2022/02/22 08:14:16;;;;;;;10.90;2.80;;;6.90;99.90;;;;;;5012341;28;20026;-44
2022/02/22 08:16:42;;;;;;;19.70;3.40;;;7.00;99.90;;;;;;5012671;28;20100;-51
2022/02/22 08:19:07;;;;;;;14.65;3.05;;;7.00;99.90;;;;;;5012413;28;20044;-46
2022/02/22 08:21:34;;;;;;;14.38;3.10;;;7.00;99.90;;;;;;5012236;28;20026;-42
2022/02/22 08:24:00;;;;;;;18.83;5.22;;;6.90;99.90;;;;;;5011952;28;20444;-47
2022/02/22 08:26:25;;;;;;;15.80;3.78;;;6.90;99.90;;;;;;5011216;28;20429;-42
2022/02/22 08:28:51;;;;;;;14.43;3.53;;;6.80;99.90;;;;;;5012312;28;20112;-46
2022/02/22 08:31:17;;;;;;;14.60;2.90;;;6.80;99.90;;;;;;5011870;28;20033;-47
2022/02/22 08:33:42;;;;;;;16.73;3.63;;;6.80;99.90;;;;;;5012048;28;20030;-46
2022/02/22 08:36:12;;;;;;;11.60;3.20;;;6.90;99.90;;;;;;5011533;28;20038;-45
2022/02/22 08:38:38;;;;;;;14.25;3.38;;;6.80;99.90;;;;;;5011833;28;20025;-49
2022/02/22 08:41:05;;;;;;;15.82;4.20;;;6.80;99.90;;;;;;5011664;28;20022;-42
2022/02/22 08:43:32;;;;;;;19.55;3.65;;;7.00;99.90;;;;;;5011575;28;20028;-46
2022/02/22 08:45:58;;;;;;;10.82;3.92;;;7.00;99.90;;;;;;5010654;28;20120;-43
2022/02/22 08:48:23;;;;;;;23.63;4.55;;;7.10;99.90;;;;;;5011106;28;20228;-46
2022/02/22 08:50:50;;;;;;;14.73;3.15;;;7.20;99.90;;;;;;5011213;28;20034;-41
2022/02/22 08:53:17;;;;;;;13.35;4.00;;;7.20;99.90;;;;;;5010639;28;20156;-41
2022/02/22 08:55:42;;;;;;;18.75;3.92;;;7.30;99.90;;;;;;5011043;28;20088;-45
2022/02/22 08:58:09;;;;;;;18.70;5.05;;;7.50;99.90;;;;;;5008591;28;20042;-43
2022/02/22 09:00:36;;;;;;;22.65;4.05;;;7.70;99.90;;;;;;5010219;28;20069;-42
2022/02/22 09:03:03;;;;;;;18.40;3.10;;;7.90;99.90;;;;;;5010917;28;20397;-45
2022/02/22 09:05:30;;;;;;;14.35;3.67;;;8.00;99.90;;;;;;5004239;28;20026;-47
2022/02/22 09:07:56;;;;;;;19.38;3.03;;;8.10;99.90;;;;;;4991983;28;20088;-42
2022/02/22 09:10:22;;;;;;;12.52;4.30;;;8.10;99.90;;;;;;5005929;28;20030;-45
2022/02/22 09:12:48;;;;;;;22.52;4.45;;;8.10;99.90;;;;;;5015858;28;20029;-44
2022/02/22 09:15:15;;;;;;;14.23;3.50;;;8.20;99.90;;;;;;5031242;28;20400;-45
2022/02/22 09:17:42;;;;;;;12.68;3.25;;;8.30;99.90;;;;;;5026276;28;20019;-46
2022/02/22 09:20:10;;;;;;;16.08;3.70;;;8.30;99.90;;;;;;5010439;28;20065;-46
2022/02/22 09:22:36;;;;;;;13.45;3.90;;;8.30;99.90;;;;;;5010939;28;20026;-43
2022/02/22 09:25:04;;;;;;;10.32;2.55;;;8.20;99.90;;;;;;5010917;28;20022;-43
2022/02/22 09:27:29;;;;;;;19.13;4.10;;;8.10;99.90;;;;;;5011088;28;20410;-48
2022/02/22 09:29:55;;;;;;;13.48;3.42;;;8.10;99.90;;;;;;5009878;28;20026;-52
2022/02/22 09:32:20;;;;;;;15.88;2.80;;;8.30;99.90;;;;;;5011024;28;20493;-45
2022/02/22 09:34:46;;;;;;;9.45;2.42;;;8.30;99.90;;;;;;5010632;28;20494;-47
2022/02/22 09:37:11;;;;;;;7.30;2.65;;;8.30;99.90;;;;;;5006753;28;20542;-41
2022/02/22 09:39:38;;;;;;;20.35;3.05;;;8.40;99.90;;;;;;5011437;28;20029;-43
2022/02/22 09:42:08;;;;;;;10.75;3.50;;;8.40;99.90;;;;;;5011973;28;20030;-46
2022/02/22 09:44:35;;;;;;;8.05;3.10;;;8.50;99.90;;;;;;5009537;28;20057;-49
2022/02/22 09:47:02;;;;;;;14.18;3.30;;;8.40;99.90;;;;;;5011004;28;20022;-45
2022/02/22 09:49:27;;;;;;;14.90;3.25;;;8.60;99.90;;;;;;5012134;28;20041;-47
2022/02/22 09:51:54;;;;;;;16.10;3.38;;;8.70;99.90;;;;;;5009133;28;20478;-46
2022/02/22 09:54:21;;;;;;;18.67;3.38;;;8.70;99.90;;;;;;5008863;28;20432;-47
2022/02/22 09:56:47;;;;;;;8.90;2.95;;;8.80;99.90;;;;;;5010858;28;20034;-50
2022/02/22 09:59:14;;;;;;;21.77;4.10;;;8.80;99.90;;;;;;5012260;28;20045;-50
2022/02/22 10:01:47;;;;;;;13.93;2.95;;;8.80;99.90;;;;;;5014568;28;20061;-48
2022/02/22 10:04:13;;;;;;;25.63;10.20;;;8.80;99.90;;;;;;5013266;28;20375;-49
2022/02/22 10:06:39;;;;;;;15.18;2.92;;;8.70;99.90;;;;;;5014780;28;20393;-48
2022/02/22 10:09:06;;;;;;;15.93;3.03;;;8.70;99.90;;;;;;5015019;28;20033;-49
2022/02/22 10:11:48;;;;;;;10.95;2.90;;;8.80;99.90;;;;;;5013481;28;20025;-52
2022/02/22 10:14:28;;;;;;;15.68;3.88;;;8.90;99.90;;;;;;5014721;28;20033;-49
2022/02/22 10:16:57;;;;;;;14.43;3.00;;;8.90;99.90;;;;;;5014513;28;20079;-50
2022/02/22 10:19:34;;;;;;;16.38;3.03;;;8.80;99.90;;;;;;5014195;28;20026;-48
2022/02/22 10:22:00;;;;;;;7.28;2.40;;;8.80;99.90;;;;;;5014508;28;20155;-48
2022/02/22 10:24:28;;;;;;;12.68;2.75;;;8.80;99.90;;;;;;5014316;28;20066;-48
2022/02/22 10:27:02;;;;;;;12.68;2.67;;;8.80;99.90;;;;;;5014389;28;20025;-46
2022/02/22 10:29:29;;;;;;;11.57;2.55;;;8.80;99.90;;;;;;5014940;28;20038;-47
2022/02/22 10:31:55;;;;;;;8.95;3.10;;;8.80;99.90;;;;;;5014455;28;20482;-47
2022/02/22 10:34:33;;;;;;;10.52;3.13;;;8.80;99.90;;;;;;5014071;28;20041;-47
2022/02/22 10:36:59;;;;;;;17.45;2.85;;;8.80;99.90;;;;;;5013264;28;20034;-47
2022/02/22 10:39:24;;;;;;;5.88;2.47;;;8.80;99.90;;;;;;5016974;28;20025;-47
2022/02/22 10:41:53;;;;;;;5.85;2.13;;;8.80;99.90;;;;;;5020516;28;20105;-45
2022/02/22 10:44:41;;;;;;;13.63;2.78;;;8.90;99.90;;;;;;5013051;28;20029;-46
2022/02/22 10:47:16;;;;;;;7.63;2.13;;;9.00;99.90;;;;;;5011881;28;20033;-49
2022/02/22 10:49:41;;;;;;;10.32;2.63;;;9.10;99.90;;;;;;5011985;28;20494;-49
2022/02/22 10:52:08;;;;;;;9.10;2.65;;;9.10;99.90;;;;;;5013266;28;20158;-48
2022/02/22 10:54:34;;;;;;;5.75;1.80;;;9.10;99.90;;;;;;5013188;28;20441;-47
2022/02/22 10:57:02;;;;;;;11.05;2.22;;;9.20;99.90;;;;;;5013451;28;20030;-47
2022/02/22 10:59:27;;;;;;;6.20;2.25;;;9.30;99.90;;;;;;5012718;28;20052;-45
2022/02/22 11:01:54;;;;;;;11.25;2.78;;;9.40;99.90;;;;;;5012657;28;20021;-46
2022/02/22 11:04:20;;;;;;;8.60;2.65;;;9.60;99.90;;;;;;5011150;28;20033;-45
2022/02/22 11:06:47;;;;;;;10.32;2.47;;;9.80;99.90;;;;;;5013428;28;20109;-46
2022/02/22 11:09:23;;;;;;;14.60;2.72;;;10.00;99.90;;;;;;5013052;28;20034;-47
2022/02/22 11:11:59;;;;;;;6.30;2.60;;;10.00;99.90;;;;;;5011662;28;20061;-48
2022/02/22 11:14:27;;;;;;;13.80;6.85;;;10.10;99.90;;;;;;5012655;28;20402;-51
2022/02/22 11:16:55;;;;;;;7.07;2.00;;;10.10;99.90;;;;;;5012461;28;20053;-46
2022/02/22 11:19:26;;;;;;;9.63;2.60;;;10.10;99.90;;;;;;5012980;28;20030;-47
2022/02/22 11:21:56;;;;;;;6.40;2.03;;;10.00;99.90;;;;;;5011216;28;20560;-49
2022/02/22 11:24:23;;;;;;;8.05;2.35;;;10.00;99.90;;;;;;5012043;28;20022;-46
2022/02/22 11:26:57;;;;;;;8.55;2.50;;;9.90;99.90;;;;;;5013012;28;20245;-48
2022/02/22 11:29:25;;;;;;;9.88;2.17;;;9.90;99.90;;;;;;4999406;28;20040;-49
2022/02/22 11:32:02;;;;;;;8.20;2.05;;;10.00;99.90;;;;;;4993249;28;20038;-44
2022/02/22 11:34:34;;;;;;;9.00;2.63;;;10.00;99.90;;;;;;4993137;28;20126;-47
2022/02/22 11:37:03;;;;;;;7.63;2.20;;;10.00;99.90;;;;;;4992103;28;20109;-47
2022/02/22 11:39:30;;;;;;;6.97;2.13;;;10.00;99.90;;;;;;4993312;28;20385;-47
2022/02/22 11:41:56;;;;;;;7.88;2.78;;;10.00;99.90;;;;;;4992869;28;20509;-47
2022/02/22 11:44:23;;;;;;;12.93;2.40;;;10.00;99.90;;;;;;4993215;28;20061;-46
2022/02/22 11:46:52;;;;;;;7.30;2.45;;;10.00;99.90;;;;;;4993485;28;20031;-44
2022/02/22 11:49:32;;;;;;;9.88;3.03;;;10.00;99.90;;;;;;4993567;28;20073;-45
2022/02/22 11:52:10;;;;;;;7.90;2.80;;;10.00;99.90;;;;;;4993189;28;20034;-46
2022/02/22 11:54:36;;;;;;;8.88;2.47;;;9.90;99.90;;;;;;4993303;28;20081;-47
2022/02/22 11:57:09;;;;;;;6.38;2.35;;;9.70;99.90;;;;;;4993180;28;20042;-45
2022/02/22 11:59:49;;;;;;;7.90;2.47;;;9.60;99.90;;;;;;4993157;28;20065;-46
2022/02/22 12:02:42;;;;;;;9.75;3.22;;;9.60;99.90;;;;;;4992871;28;20517;-46
2022/02/22 12:05:28;;;;;;;10.93;2.97;;;9.60;99.90;;;;;;4993235;28;20057;-45
2022/02/22 12:08:04;;;;;;;;;;;9.70;99.90;;;;;;4993308;28;20482;-45
2022/02/22 12:10:32;;;;;;;9.70;3.40;;;9.70;99.90;;;;;;4992983;28;19906;-47
2022/02/22 12:13:12;;;;;;;14.70;3.35;;;9.80;99.90;;;;;;4992529;28;20407;-47
2022/02/22 12:15:41;;;;;;;12.75;3.25;;;9.80;99.90;;;;;;4992877;28;20379;-47
2022/02/22 12:18:23;;;;;;;8.48;2.50;;;9.70;99.90;;;;;;4992733;28;20022;-46
2022/02/22 12:20:50;;;;;;;6.85;2.80;;;9.80;99.90;;;;;;4992296;28;20027;-50
2022/02/22 12:23:22;;;;;;;7.95;2.63;;;9.80;99.90;;;;;;4991972;28;20397;-45
2022/02/22 12:25:49;;;;;;;9.60;2.75;;;9.80;99.90;;;;;;4992486;28;20041;-46
2022/02/22 12:28:15;;;;;;;10.52;3.08;;;9.70;99.90;;;;;;4992829;28;20045;-48
2022/02/22 12:30:42;;;;;;;12.95;3.30;;;9.60;99.90;;;;;;4991082;28;20029;-46
2022/02/22 12:33:09;;;;;;;17.15;3.35;;;9.60;99.90;;;;;;4992333;28;20109;-47
2022/02/22 12:35:45;;;;;;;15.73;4.68;;;9.60;99.90;;;;;;4992441;28;20061;-45
2022/02/22 12:38:28;;;;;;;16.55;4.07;;;9.50;99.90;;;;;;4992516;28;20030;-47
2022/02/22 12:40:53;;;;;;;14.90;4.45;;;9.50;99.90;;;;;;4992521;28;20042;-45
2022/02/22 12:43:20;;;;;;;13.35;3.88;;;9.50;99.90;;;;;;4991638;28;20034;-46
2022/02/22 12:45:51;;;;;;;17.30;3.03;;;9.50;99.90;;;;;;4992499;28;20022;-45
2022/02/22 12:48:21;;;;;;;13.93;3.50;;;9.40;99.90;;;;;;4992467;28;20402;-46
2022/02/22 12:50:54;;;;;;;22.30;4.10;;;9.40;99.90;;;;;;4992319;28;20029;-44